createdAt,value
2018-11-25T00:00:37.037Z,92.42
2018-11-25T00:01:41.537Z,92.32
2018-11-25T00:02:47.046Z,92.51
2018-11-25T00:03:52.552Z,92.23
2018-11-25T00:04:58.069Z,92.71
2018-11-25T00:06:03.582Z,92.71
2018-11-25T00:07:10.088Z,92.99
2018-11-25T00:08:14.584Z,92.61
2018-11-25T00:09:20.097Z,93.18
2018-11-25T00:10:25.592Z,93.27
2018-11-25T00:11:31.100Z,93.27
2018-11-25T00:12:36.614Z,93.18
2018-11-25T00:13:43.140Z,93.18
2018-11-25T00:14:47.629Z,93.08
2018-11-25T00:15:53.130Z,93.27
2018-11-25T00:16:58.643Z,93.08
2018-11-25T00:18:04.150Z,93.27
2018-11-25T00:19:09.676Z,93.18
2018-11-25T00:20:16.175Z,93.27
2018-11-25T00:21:20.670Z,93.08
2018-11-25T00:22:26.173Z,93.27
2018-11-25T00:23:31.680Z,93.37
2018-11-25T00:24:37.197Z,93.27
2018-11-25T00:25:42.694Z,93.27
2018-11-25T00:26:49.214Z,93.27
2018-11-25T00:27:53.707Z,93.27
2018-11-25T00:28:59.222Z,93.46
2018-11-25T00:30:04.732Z,93.56
2018-11-25T00:31:10.229Z,93.65
2018-11-25T00:32:15.739Z,93.65
2018-11-25T00:33:22.258Z,93.18
2018-11-25T00:34:26.756Z,93.65
2018-11-25T00:35:32.261Z,93.46
2018-11-25T00:36:37.793Z,93.46
2018-11-25T00:37:48.144Z,93.65
2018-11-25T00:38:48.813Z,93.65
2018-11-25T00:39:55.304Z,93.46
2018-11-25T00:40:59.797Z,93.56
2018-11-25T00:42:05.306Z,93.65
2018-11-25T00:43:10.870Z,93.65
2018-11-25T00:44:16.316Z,94.03
2018-11-25T00:45:21.828Z,94.03
2018-11-25T00:46:28.347Z,94.23
2018-11-25T00:47:32.842Z,93.84
2018-11-25T00:48:38.346Z,94.03
2018-11-25T00:49:43.855Z,94.03
2018-11-25T00:50:49.361Z,93.84
2018-11-25T00:51:54.881Z,93.94
2018-11-25T00:53:01.390Z,94.13
2018-11-25T00:54:05.888Z,94.03
2018-11-25T00:55:11.390Z,94.03
2018-11-25T00:56:16.900Z,94.23
2018-11-25T00:57:22.408Z,94.03
2018-11-25T00:58:27.914Z,94.03
2018-11-25T00:59:34.434Z,93.65
2018-11-25T01:00:38.931Z,94.03
2018-11-25T01:01:44.434Z,94.03
2018-11-25T01:02:49.950Z,93.94
2018-11-25T01:03:55.444Z,93.56
2018-11-25T01:05:00.955Z,93.65
2018-11-25T01:06:07.475Z,93.94
2018-11-25T01:07:11.972Z,93.46
2018-11-25T01:08:17.476Z,93.46
2018-11-25T01:09:22.981Z,93.65
2018-11-25T01:10:28.488Z,94.23
2018-11-25T01:11:34.003Z,93.75
2018-11-25T01:12:40.518Z,93.27
2018-11-25T01:13:45.011Z,93.65
2018-11-25T01:14:50.519Z,93.56
2018-11-25T01:15:56.031Z,93.65
2018-11-25T01:17:01.568Z,93.46
2018-11-25T01:18:07.046Z,93.65
2018-11-25T01:19:13.561Z,93.18
2018-11-25T01:20:18.060Z,93.46
2018-11-25T01:21:23.570Z,93.18
2018-11-25T01:22:29.079Z,93.46
2018-11-25T01:23:34.578Z,92.99
2018-11-25T01:24:40.083Z,93.18
2018-11-25T01:25:46.600Z,93.46
2018-11-25T01:26:51.105Z,93.37
2018-11-25T01:27:56.611Z,93.08
2018-11-25T01:29:02.115Z,93.46
2018-11-25T01:30:07.671Z,93.46
2018-11-25T01:31:13.136Z,93.65
2018-11-25T01:32:19.653Z,93.46
2018-11-25T01:33:24.141Z,93.46
2018-11-25T01:34:29.649Z,93.46
2018-11-25T01:35:35.156Z,93.37
2018-11-25T01:36:40.660Z,93.08
2018-11-25T01:37:46.174Z,93.46
2018-11-25T01:38:52.686Z,93.65
2018-11-25T01:39:57.182Z,93.75
2018-11-25T01:41:02.692Z,93.18
2018-11-25T01:42:08.199Z,93.08
2018-11-25T01:43:13.702Z,92.90
2018-11-25T01:44:19.212Z,92.99
2018-11-25T01:45:25.730Z,93.08
2018-11-25T01:46:30.222Z,92.90
2018-11-25T01:47:35.742Z,93.46
2018-11-25T01:48:41.241Z,93.46
2018-11-25T01:49:46.760Z,92.85
2018-11-25T01:50:52.260Z,93.37
2018-11-25T01:51:58.774Z,92.99
2018-11-25T01:53:03.269Z,93.37
2018-11-25T01:54:08.776Z,93.37
2018-11-25T01:55:14.278Z,93.08
2018-11-25T01:56:19.799Z,93.08
2018-11-25T01:57:25.295Z,92.90
2018-11-25T01:58:31.813Z,93.37
2018-11-25T01:59:36.308Z,93.27
2018-11-25T02:00:41.815Z,93.27
2018-11-25T02:01:47.321Z,93.27
2018-11-25T02:02:52.828Z,93.27
2018-11-25T02:03:58.337Z,92.94
2018-11-25T02:05:04.857Z,92.90
2018-11-25T02:06:09.360Z,93.37
2018-11-25T02:07:14.856Z,93.46
2018-11-25T02:08:20.366Z,93.23
2018-11-25T02:09:25.872Z,93.27
2018-11-25T02:10:31.382Z,93.18
2018-11-25T02:11:37.896Z,92.94
2018-11-25T02:12:42.395Z,93.18
2018-11-25T02:13:47.898Z,93.65
2018-11-25T02:14:53.407Z,93.08
2018-11-25T02:15:58.911Z,93.04
2018-11-25T02:17:04.424Z,93.51
2018-11-25T02:18:10.938Z,93.04
2018-11-25T02:19:15.441Z,93.13
2018-11-25T02:20:20.944Z,93.13
2018-11-25T02:21:26.455Z,93.41
2018-11-25T02:22:31.965Z,93.56
2018-11-25T02:23:37.467Z,93.51
2018-11-25T02:24:43.982Z,93.51
2018-11-25T02:25:48.477Z,93.70
2018-11-25T02:26:53.987Z,93.65
2018-11-25T02:27:59.488Z,93.23
2018-11-25T02:29:04.997Z,93.65
2018-11-25T02:30:10.513Z,93.46
2018-11-25T02:31:17.034Z,93.46
2018-11-25T02:32:21.517Z,93.65
2018-11-25T02:33:27.032Z,93.65
2018-11-25T02:34:32.535Z,93.37
2018-11-25T02:35:38.052Z,93.46
2018-11-25T02:36:43.553Z,93.56
2018-11-25T02:37:50.064Z,93.18
2018-11-25T02:38:54.560Z,93.65
2018-11-25T02:40:00.068Z,93.46
2018-11-25T02:41:05.581Z,93.65
2018-11-25T02:42:11.080Z,93.37
2018-11-25T02:43:16.594Z,93.37
2018-11-25T02:44:23.111Z,93.27
2018-11-25T02:45:27.610Z,93.08
2018-11-25T02:46:33.119Z,93.46
2018-11-25T02:47:38.625Z,93.27
2018-11-25T02:48:44.130Z,92.99
2018-11-25T02:49:49.635Z,93.27
2018-11-25T02:50:56.149Z,92.99
2018-11-25T02:52:00.651Z,93.18
2018-11-25T02:53:06.153Z,92.99
2018-11-25T02:54:11.667Z,93.18
2018-11-25T02:55:17.169Z,93.08
2018-11-25T02:56:22.673Z,92.99
2018-11-25T02:57:29.195Z,92.71
2018-11-25T02:58:33.690Z,92.90
2018-11-25T02:59:39.198Z,92.99
2018-11-25T03:00:44.706Z,93.27
2018-11-25T03:01:50.210Z,93.27
2018-11-25T03:02:55.727Z,92.32
2018-11-25T03:04:02.236Z,93.18
2018-11-25T03:05:06.731Z,93.27
2018-11-25T03:06:12.244Z,93.46
2018-11-25T03:07:17.747Z,93.18
2018-11-25T03:08:23.256Z,93.18
2018-11-25T03:09:28.772Z,93.27
2018-11-25T03:10:35.279Z,93.27
2018-11-25T03:11:39.785Z,93.08
2018-11-25T03:12:45.280Z,93.27
2018-11-25T03:13:50.795Z,93.37
2018-11-25T03:14:56.297Z,93.27
2018-11-25T03:16:01.807Z,93.18
2018-11-25T03:17:08.322Z,93.08
2018-11-25T03:18:12.817Z,93.37
2018-11-25T03:19:18.324Z,93.18
2018-11-25T03:20:23.843Z,92.80
2018-11-25T03:21:29.358Z,92.71
2018-11-25T03:22:34.851Z,92.71
2018-11-25T03:23:41.367Z,92.71
2018-11-25T03:24:45.860Z,92.71
2018-11-25T03:25:51.386Z,92.80
2018-11-25T03:26:56.885Z,92.80
2018-11-25T03:28:02.386Z,92.51
2018-11-25T03:29:07.888Z,93.08
2018-11-25T03:30:14.407Z,93.37
2018-11-25T03:31:18.906Z,93.18
2018-11-25T03:32:24.415Z,93.18
2018-11-25T03:33:29.927Z,92.71
2018-11-25T03:34:35.424Z,92.42
2018-11-25T03:35:40.938Z,92.71
2018-11-25T03:36:47.458Z,93.18
2018-11-25T03:37:51.947Z,92.32
2018-11-25T03:38:57.455Z,92.71
2018-11-25T03:40:02.963Z,92.71
2018-11-25T03:41:08.472Z,92.90
2018-11-25T03:42:13.979Z,92.42
2018-11-25T03:43:20.501Z,92.32
2018-11-25T03:44:24.994Z,92.90
2018-11-25T03:45:30.503Z,92.51
2018-11-25T03:46:36.011Z,92.42
2018-11-25T03:47:41.513Z,92.32
2018-11-25T03:48:47.021Z,92.42
2018-11-25T03:49:53.541Z,92.71
2018-11-25T03:50:58.041Z,92.71
2018-11-25T03:52:03.550Z,92.71
2018-11-25T03:53:09.048Z,92.71
2018-11-25T03:54:14.560Z,93.27
2018-11-25T03:55:20.091Z,93.18
2018-11-25T03:56:26.585Z,93.08
2018-11-25T03:57:31.087Z,93.27
2018-11-25T03:58:36.597Z,93.46
2018-11-25T03:59:42.099Z,93.08
2018-11-25T04:00:47.607Z,92.99
2018-11-25T04:01:53.109Z,93.37
2018-11-25T04:02:59.630Z,93.27
2018-11-25T04:04:04.126Z,93.37
2018-11-25T04:05:09.628Z,93.37
2018-11-25T04:06:15.140Z,93.04
2018-11-25T04:07:20.650Z,93.04
2018-11-25T04:08:26.152Z,93.65
2018-11-25T04:09:32.672Z,93.56
2018-11-25T04:10:37.169Z,93.56
2018-11-25T04:11:42.676Z,93.56
2018-11-25T04:12:48.179Z,93.08
2018-11-25T04:13:53.689Z,93.18
2018-11-25T04:14:59.197Z,92.90
2018-11-25T04:16:05.715Z,92.90
2018-11-25T04:17:10.218Z,92.99
2018-11-25T04:18:15.717Z,93.37
2018-11-25T04:19:21.227Z,93.27
2018-11-25T04:20:26.732Z,93.37
2018-11-25T04:21:32.243Z,93.37
2018-11-25T04:22:38.757Z,92.90
2018-11-25T04:23:43.251Z,93.27
2018-11-25T04:24:48.761Z,92.99
2018-11-25T04:25:54.268Z,92.99
2018-11-25T04:26:59.785Z,93.27
2018-11-25T04:28:05.281Z,93.37
2018-11-25T04:29:11.801Z,93.27
2018-11-25T04:30:16.299Z,93.37
2018-11-25T04:31:21.804Z,93.37
2018-11-25T04:32:27.309Z,93.08
2018-11-25T04:33:32.817Z,93.18
2018-11-25T04:34:38.323Z,93.37
2018-11-25T04:35:44.848Z,92.71
2018-11-25T04:36:49.342Z,93.27
2018-11-25T04:37:54.850Z,92.99
2018-11-25T04:39:00.355Z,93.18
2018-11-25T04:40:05.860Z,92.90
2018-11-25T04:41:11.366Z,92.99
2018-11-25T04:42:17.884Z,93.08
2018-11-25T04:43:22.381Z,93.27
2018-11-25T04:44:27.887Z,93.37
2018-11-25T04:45:33.395Z,93.27
2018-11-25T04:46:38.903Z,93.46
2018-11-25T04:47:44.415Z,93.08
2018-11-25T04:48:50.930Z,93.65
2018-11-25T04:49:55.422Z,93.27
2018-11-25T04:51:00.934Z,93.37
2018-11-25T04:52:06.437Z,93.08
2018-11-25T04:53:11.944Z,93.27
2018-11-25T04:54:17.450Z,92.99
2018-11-25T04:55:23.969Z,93.46
2018-11-25T04:56:28.477Z,93.46
2018-11-25T04:57:34.029Z,93.46
2018-11-25T04:58:39.482Z,93.70
2018-11-25T04:59:44.988Z,94.27
2018-11-25T05:00:50.493Z,93.89
2018-11-25T05:01:57.016Z,94.03
2018-11-25T05:03:01.515Z,94.08
2018-11-25T05:04:07.020Z,94.08
2018-11-25T05:05:12.524Z,94.56
2018-11-25T05:06:18.039Z,94.56
2018-11-25T05:07:23.549Z,94.56
2018-11-25T05:08:30.052Z,94.84
2018-11-25T05:09:34.552Z,94.74
2018-11-25T05:10:40.066Z,94.65
2018-11-25T05:11:45.566Z,94.74
2018-11-25T05:12:51.081Z,94.56
2018-11-25T05:13:56.582Z,94.65
2018-11-25T05:15:03.098Z,94.37
2018-11-25T05:16:07.590Z,94.46
2018-11-25T05:17:13.110Z,95.03
2018-11-25T05:18:18.611Z,94.46
2018-11-25T05:19:24.116Z,94.27
2018-11-25T05:20:29.620Z,95.12
2018-11-25T05:21:36.139Z,95.03
2018-11-25T05:22:40.652Z,95.41
2018-11-25T05:23:46.140Z,95.60
2018-11-25T05:24:51.651Z,95.31
2018-11-25T05:25:57.154Z,95.51
2018-11-25T05:27:02.669Z,95.41
2018-11-25T05:28:09.179Z,95.41
2018-11-25T05:29:13.680Z,95.51
2018-11-25T05:30:19.183Z,95.60
2018-11-25T05:31:24.688Z,95.70
2018-11-25T05:32:30.195Z,95.22
2018-11-25T05:33:35.706Z,95.98
2018-11-25T05:34:42.220Z,95.51
2018-11-25T05:35:46.719Z,95.98
2018-11-25T05:36:52.229Z,95.79
2018-11-25T05:37:57.741Z,95.89
2018-11-25T05:39:03.237Z,96.17
2018-11-25T05:40:08.742Z,95.79
2018-11-25T05:41:15.266Z,95.98
2018-11-25T05:42:19.763Z,95.98
2018-11-25T05:43:25.275Z,95.98
2018-11-25T05:44:30.787Z,95.89
2018-11-25T05:45:36.278Z,95.31
2018-11-25T05:46:41.782Z,95.51
2018-11-25T05:47:48.304Z,95.51
2018-11-25T05:48:52.796Z,95.89
2018-11-25T05:49:58.304Z,95.51
2018-11-25T05:51:03.812Z,95.31
2018-11-25T05:52:09.338Z,95.22
2018-11-25T05:53:14.829Z,95.60
2018-11-25T05:54:21.345Z,95.22
2018-11-25T05:55:25.840Z,95.03
2018-11-25T05:56:31.349Z,94.84
2018-11-25T05:57:36.852Z,94.84
2018-11-25T05:58:42.358Z,95.12
2018-11-25T05:59:47.864Z,95.12
2018-11-25T06:00:54.381Z,94.74
2018-11-25T06:01:58.880Z,95.22
2018-11-25T06:03:04.388Z,95.12
2018-11-25T06:04:09.893Z,95.12
2018-11-25T06:05:15.402Z,94.56
2018-11-25T06:06:20.917Z,94.37
2018-11-25T06:07:27.426Z,95.12
2018-11-25T06:08:31.924Z,95.03
2018-11-25T06:09:37.428Z,95.22
2018-11-25T06:10:42.939Z,95.03
2018-11-25T06:11:48.446Z,95.03
2018-11-25T06:12:53.957Z,94.65
2018-11-25T06:14:00.472Z,94.84
2018-11-25T06:15:04.962Z,94.37
2018-11-25T06:16:10.469Z,94.84
2018-11-25T06:17:15.978Z,94.56
2018-11-25T06:18:21.483Z,94.18
2018-11-25T06:19:26.992Z,94.27
2018-11-25T06:20:33.516Z,94.03
2018-11-25T06:21:38.009Z,94.42
2018-11-25T06:22:43.512Z,94.23
2018-11-25T06:23:49.027Z,93.65
2018-11-25T06:24:54.529Z,94.03
2018-11-25T06:26:00.032Z,93.60
2018-11-25T06:27:06.553Z,93.60
2018-11-25T06:28:11.049Z,93.60
2018-11-25T06:29:16.554Z,93.60
2018-11-25T06:30:22.066Z,93.51
2018-11-25T06:31:28.151Z,93.51
2018-11-25T06:32:33.075Z,93.41
2018-11-25T06:33:39.594Z,93.41
2018-11-25T06:34:44.091Z,93.18
2018-11-25T06:35:49.604Z,93.27
2018-11-25T06:36:55.110Z,93.46
2018-11-25T06:38:00.614Z,93.46
2018-11-25T06:39:06.124Z,92.94
2018-11-25T06:40:12.639Z,93.04
2018-11-25T06:41:17.131Z,93.23
2018-11-25T06:42:22.639Z,93.18
2018-11-25T06:43:28.146Z,92.99
2018-11-25T06:44:33.654Z,92.94
2018-11-25T06:45:39.161Z,93.13
2018-11-25T06:46:45.678Z,92.94
2018-11-25T06:47:50.182Z,93.04
2018-11-25T06:48:55.679Z,93.51
2018-11-25T06:50:01.190Z,93.13
2018-11-25T06:51:06.699Z,93.80
2018-11-25T06:52:12.206Z,93.60
2018-11-25T06:53:18.727Z,93.41
2018-11-25T06:54:23.218Z,93.51
2018-11-25T06:55:28.724Z,93.70
2018-11-25T06:56:34.236Z,93.41
2018-11-25T06:57:39.747Z,93.32
2018-11-25T06:58:45.247Z,93.04
2018-11-25T06:59:51.766Z,93.04
2018-11-25T07:00:56.257Z,93.60
2018-11-25T07:02:01.768Z,93.13
2018-11-25T07:03:07.277Z,93.60
2018-11-25T07:04:12.777Z,93.32
2018-11-25T07:05:18.285Z,93.99
2018-11-25T07:06:24.806Z,93.60
2018-11-25T07:07:29.314Z,93.70
2018-11-25T07:08:34.807Z,93.60
2018-11-25T07:09:40.320Z,93.60
2018-11-25T07:10:45.822Z,93.60
2018-11-25T07:11:51.335Z,93.60
2018-11-25T07:12:57.846Z,93.32
2018-11-25T07:14:02.359Z,93.99
2018-11-25T07:15:07.851Z,93.80
2018-11-25T07:16:13.357Z,93.80
2018-11-25T07:17:18.862Z,94.08
2018-11-25T07:18:24.370Z,93.99
2018-11-25T07:19:30.889Z,93.89
2018-11-25T07:20:35.385Z,93.89
2018-11-25T07:21:40.893Z,93.41
2018-11-25T07:22:46.397Z,93.41
2018-11-25T07:23:51.903Z,93.41
2018-11-25T07:24:57.413Z,93.51
2018-11-25T07:26:03.940Z,93.60
2018-11-25T07:27:08.429Z,93.51
2018-11-25T07:28:18.521Z,93.41
2018-11-25T07:29:19.439Z,93.41
2018-11-25T07:30:24.946Z,93.60
2018-11-25T07:31:30.470Z,93.70
2018-11-25T07:32:36.970Z,93.51
2018-11-25T07:33:41.466Z,93.51
2018-11-25T07:34:46.972Z,93.80
2018-11-25T07:35:52.486Z,93.99
2018-11-25T07:36:57.995Z,93.99
2018-11-25T07:38:03.496Z,94.08
2018-11-25T07:39:10.014Z,93.89
2018-11-25T07:40:14.504Z,93.80
2018-11-25T07:41:20.014Z,94.27
2018-11-25T07:42:25.529Z,94.08
2018-11-25T07:43:31.030Z,94.18
2018-11-25T07:44:36.539Z,94.18
2018-11-25T07:45:43.049Z,94.08
2018-11-25T07:46:47.556Z,93.60
2018-11-25T07:47:53.056Z,94.08
2018-11-25T07:48:58.567Z,94.18
2018-11-25T07:50:04.071Z,93.89
2018-11-25T07:51:09.580Z,93.99
2018-11-25T07:52:16.103Z,94.93
2018-11-25T07:53:20.586Z,94.65
2018-11-25T07:54:26.099Z,94.84
2018-11-25T07:55:31.602Z,94.08
2018-11-25T07:56:37.119Z,93.99
2018-11-25T07:57:42.624Z,94.18
2018-11-25T07:58:49.136Z,94.65
2018-11-25T07:59:53.641Z,94.46
2018-11-25T08:00:59.140Z,94.56
2018-11-25T08:02:04.649Z,94.74
2018-11-25T08:03:10.152Z,94.84
2018-11-25T08:04:15.662Z,94.84
2018-11-25T08:05:22.176Z,94.46
2018-11-25T08:06:26.687Z,94.56
2018-11-25T08:07:32.748Z,94.74
2018-11-25T08:08:37.698Z,94.65
2018-11-25T08:09:43.200Z,95.03
2018-11-25T08:10:48.706Z,94.84
2018-11-25T08:11:55.235Z,94.08
2018-11-25T08:12:59.718Z,93.99
2018-11-25T08:14:05.219Z,94.18
2018-11-25T08:15:10.733Z,94.27
2018-11-25T08:16:16.232Z,94.27
2018-11-25T08:17:21.742Z,93.99
2018-11-25T08:18:28.259Z,94.18
2018-11-25T08:19:32.752Z,94.08
2018-11-25T08:20:38.262Z,93.70
2018-11-25T08:21:43.769Z,94.37
2018-11-25T08:22:49.279Z,94.37
2018-11-25T08:23:54.788Z,94.42
2018-11-25T08:25:01.298Z,94.23
2018-11-25T08:26:05.796Z,94.13
2018-11-25T08:27:11.304Z,93.84
2018-11-25T08:28:16.813Z,93.80
2018-11-25T08:29:22.312Z,93.75
2018-11-25T08:30:27.820Z,93.65
2018-11-25T08:31:34.337Z,94.03
2018-11-25T08:32:38.847Z,94.03
2018-11-25T08:33:44.347Z,94.13
2018-11-25T08:34:49.881Z,93.84
2018-11-25T08:35:55.362Z,93.94
2018-11-25T08:37:00.871Z,94.03
2018-11-25T08:38:07.381Z,93.94
2018-11-25T08:39:11.877Z,94.03
2018-11-25T08:40:17.387Z,94.03
2018-11-25T08:41:22.900Z,94.03
2018-11-25T08:42:28.401Z,94.03
2018-11-25T08:43:33.909Z,94.03
2018-11-25T08:44:40.431Z,93.65
2018-11-25T08:45:44.920Z,93.56
2018-11-25T08:46:50.428Z,93.46
2018-11-25T08:47:55.940Z,93.46
2018-11-25T08:49:01.444Z,93.56
2018-11-25T08:50:06.949Z,93.18
2018-11-25T08:51:13.468Z,93.27
2018-11-25T08:52:17.961Z,93.08
2018-11-25T08:53:23.473Z,93.18
2018-11-25T08:54:28.988Z,92.99
2018-11-25T08:55:34.495Z,93.27
2018-11-25T08:56:39.999Z,92.99
2018-11-25T08:57:46.545Z,93.08
2018-11-25T08:58:51.007Z,93.27
2018-11-25T08:59:56.522Z,93.27
2018-11-25T09:01:02.040Z,93.18
2018-11-25T09:02:07.524Z,93.27
2018-11-25T09:03:13.040Z,93.27
2018-11-25T09:04:19.551Z,93.18
2018-11-25T09:05:24.055Z,93.27
2018-11-25T09:06:29.554Z,93.08
2018-11-25T09:07:35.062Z,92.51
2018-11-25T09:08:40.571Z,92.71
2018-11-25T09:09:46.095Z,92.90
2018-11-25T09:10:52.591Z,92.61
2018-11-25T09:11:57.094Z,92.32
2018-11-25T09:13:02.600Z,92.13
2018-11-25T09:14:08.109Z,92.32
2018-11-25T09:15:13.628Z,92.13
2018-11-25T09:16:19.131Z,92.51
2018-11-25T09:17:25.640Z,92.42
2018-11-25T09:18:30.139Z,92.61
2018-11-25T09:19:35.645Z,92.23
2018-11-25T09:20:41.153Z,92.42
2018-11-25T09:21:46.662Z,92.32
2018-11-25T09:22:52.169Z,92.32
2018-11-25T09:23:58.691Z,92.04
2018-11-25T09:25:03.180Z,92.32
2018-11-25T09:26:08.695Z,92.42
2018-11-25T09:27:14.207Z,92.51
2018-11-25T09:28:19.704Z,91.94
2018-11-25T09:29:25.211Z,92.71
2018-11-25T09:30:31.728Z,92.42
2018-11-25T09:31:36.218Z,92.32
2018-11-25T09:32:41.728Z,92.13
2018-11-25T09:33:47.240Z,92.42
2018-11-25T09:34:52.747Z,92.71
2018-11-25T09:35:58.255Z,92.32
2018-11-25T09:37:04.781Z,92.04
2018-11-25T09:38:09.265Z,92.13
2018-11-25T09:39:14.771Z,92.61
2018-11-25T09:40:20.278Z,92.61
2018-11-25T09:41:25.794Z,92.13
2018-11-25T09:42:31.297Z,92.51
2018-11-25T09:43:37.820Z,92.51
2018-11-25T09:44:42.307Z,92.51
2018-11-25T09:45:47.822Z,92.42
2018-11-25T09:46:53.324Z,92.42
2018-11-25T09:47:58.865Z,92.13
2018-11-25T09:49:04.341Z,92.23
2018-11-25T09:50:10.856Z,91.66
2018-11-25T09:51:15.354Z,91.66
2018-11-25T09:52:20.865Z,91.94
2018-11-25T09:53:26.369Z,92.32
2018-11-25T09:54:31.873Z,92.61
2018-11-25T09:55:37.389Z,92.42
2018-11-25T09:56:43.900Z,92.42
2018-11-25T09:57:48.400Z,92.51
2018-11-25T09:58:53.904Z,92.23
2018-11-25T09:59:59.410Z,92.61
2018-11-25T10:01:04.918Z,92.61
2018-11-25T10:02:10.427Z,92.13
2018-11-25T10:03:16.944Z,92.42
2018-11-25T10:04:21.438Z,92.42
2018-11-25T10:05:26.954Z,92.51
2018-11-25T10:06:32.453Z,92.13
2018-11-25T10:07:37.963Z,92.23
2018-11-25T10:08:43.477Z,92.51
2018-11-25T10:09:49.997Z,92.04
2018-11-25T10:10:54.485Z,92.42
2018-11-25T10:11:59.994Z,92.32
2018-11-25T10:13:05.499Z,92.32
2018-11-25T10:14:11.003Z,92.61
2018-11-25T10:15:16.521Z,92.61
2018-11-25T10:16:23.045Z,92.61
2018-11-25T10:17:27.535Z,92.46
2018-11-25T10:18:33.045Z,92.18
2018-11-25T10:19:38.545Z,91.85
2018-11-25T10:20:44.061Z,91.85
2018-11-25T10:21:49.559Z,91.66
2018-11-25T10:22:56.079Z,91.85
2018-11-25T10:24:00.578Z,91.85
2018-11-25T10:25:06.080Z,92.32
2018-11-25T10:26:11.588Z,92.32
2018-11-25T10:27:17.095Z,92.42
2018-11-25T10:28:22.606Z,92.56
2018-11-25T10:29:29.124Z,92.13
2018-11-25T10:30:33.635Z,91.94
2018-11-25T10:31:39.123Z,92.13
2018-11-25T10:32:44.649Z,91.94
2018-11-25T10:33:50.137Z,91.89
2018-11-25T10:34:55.653Z,91.66
2018-11-25T10:36:04.578Z,92.04
2018-11-25T10:37:06.662Z,91.71
2018-11-25T10:38:12.167Z,91.47
2018-11-25T10:39:17.676Z,91.28
2018-11-25T10:40:23.190Z,91.61
2018-11-25T10:41:28.695Z,91.99
2018-11-25T10:42:35.210Z,91.56
2018-11-25T10:43:39.722Z,91.52
2018-11-25T10:44:45.214Z,91.28
2018-11-25T10:45:50.727Z,91.38
2018-11-25T10:46:56.225Z,91.85
2018-11-25T10:48:01.749Z,92.04
2018-11-25T10:49:08.254Z,92.13
2018-11-25T10:50:12.747Z,91.85
2018-11-25T10:51:18.254Z,91.56
2018-11-25T10:52:23.760Z,91.94
2018-11-25T10:53:29.274Z,92.13
2018-11-25T10:54:34.786Z,91.94
2018-11-25T10:55:41.295Z,91.94
2018-11-25T10:56:45.801Z,91.85
2018-11-25T10:57:51.303Z,92.32
2018-11-25T10:58:56.806Z,92.13
2018-11-25T11:00:02.318Z,92.04
2018-11-25T11:01:07.827Z,92.32
2018-11-25T11:02:14.376Z,92.32
2018-11-25T11:03:18.848Z,92.23
2018-11-25T11:04:24.343Z,92.61
2018-11-25T11:05:29.868Z,91.94
2018-11-25T11:06:35.363Z,91.75
2018-11-25T11:07:40.878Z,91.66
2018-11-25T11:08:47.383Z,91.85
2018-11-25T11:09:51.883Z,92.04
2018-11-25T11:10:57.393Z,91.66
2018-11-25T11:12:02.889Z,92.04
2018-11-25T11:13:08.402Z,92.04
2018-11-25T11:14:13.915Z,92.13
2018-11-25T11:15:20.442Z,92.32
2018-11-25T11:16:24.925Z,92.32
2018-11-25T11:17:30.426Z,92.32
2018-11-25T11:18:35.946Z,92.61
2018-11-25T11:19:41.444Z,92.42
2018-11-25T11:20:46.949Z,92.04
2018-11-25T11:21:53.471Z,92.13
2018-11-25T11:22:57.963Z,91.85
2018-11-25T11:24:03.483Z,92.13
2018-11-25T11:25:08.985Z,91.33
2018-11-25T11:26:14.493Z,91.47
2018-11-25T11:27:19.998Z,91.56
2018-11-25T11:28:26.514Z,91.38
2018-11-25T11:29:31.025Z,91.19
2018-11-25T11:30:36.521Z,91.85
2018-11-25T11:31:42.029Z,91.85
2018-11-25T11:32:47.545Z,91.28
2018-11-25T11:33:53.039Z,91.56
2018-11-25T11:35:00.525Z,91.94
2018-11-25T11:36:04.074Z,91.85
2018-11-25T11:37:09.565Z,91.89
2018-11-25T11:38:15.082Z,91.85
2018-11-25T11:39:20.577Z,91.99
2018-11-25T11:40:26.084Z,91.94
2018-11-25T11:41:32.601Z,91.89
2018-11-25T11:42:37.099Z,92.04
2018-11-25T11:43:42.616Z,91.94
2018-11-25T11:44:48.111Z,91.94
2018-11-25T11:45:53.618Z,92.04
2018-11-25T11:46:59.132Z,91.85
2018-11-25T11:48:05.648Z,92.13
2018-11-25T11:49:10.150Z,91.85
2018-11-25T11:50:15.649Z,91.85
2018-11-25T11:51:25.473Z,91.66
2018-11-25T11:52:26.660Z,91.85
2018-11-25T11:53:32.169Z,91.47
2018-11-25T11:54:38.690Z,91.56
2018-11-25T11:55:43.196Z,91.75
2018-11-25T11:56:48.694Z,91.94
2018-11-25T11:57:54.202Z,91.75
2018-11-25T11:58:59.714Z,91.85
2018-11-25T12:00:05.219Z,91.85
2018-11-25T12:01:11.735Z,91.85
2018-11-25T12:02:16.242Z,92.42
2018-11-25T12:03:26.629Z,92.51
2018-11-25T12:04:27.244Z,92.32
2018-11-25T12:05:32.749Z,92.42
2018-11-25T12:06:38.276Z,92.32
2018-11-25T12:07:44.830Z,92.51
2018-11-25T12:08:49.271Z,92.42
2018-11-25T12:09:54.776Z,92.42
2018-11-25T12:11:00.302Z,92.61
2018-11-25T12:12:05.806Z,92.23
2018-11-25T12:13:11.302Z,92.71
2018-11-25T12:14:17.820Z,92.32
2018-11-25T12:15:29.990Z,92.71
2018-11-25T12:16:27.827Z,92.61
2018-11-25T12:17:33.337Z,92.80
2018-11-25T12:18:38.842Z,92.42
2018-11-25T12:19:44.349Z,91.94
2018-11-25T12:20:50.877Z,92.42
2018-11-25T12:21:58.285Z,92.42
2018-11-25T12:23:00.865Z,92.13
2018-11-25T12:24:06.374Z,92.51
2018-11-25T12:25:11.885Z,92.13
2018-11-25T12:26:17.385Z,92.23
2018-11-25T12:27:23.922Z,92.04
2018-11-25T12:28:28.401Z,92.42
2018-11-25T12:29:33.919Z,92.42
2018-11-25T12:30:39.424Z,92.51
2018-11-25T12:31:44.929Z,92.23
2018-11-25T12:32:50.432Z,92.61
2018-11-25T12:33:56.947Z,92.51
2018-11-25T12:35:01.447Z,92.51
2018-11-25T12:36:06.966Z,92.71
2018-11-25T12:37:12.458Z,92.51
2018-11-25T12:38:17.970Z,92.80
2018-11-25T12:39:28.302Z,92.32
2018-11-25T12:40:29.995Z,92.13
2018-11-25T12:41:34.486Z,92.04
2018-11-25T12:42:40.005Z,92.23
2018-11-25T12:43:45.521Z,92.42
2018-11-25T12:44:51.011Z,92.13
2018-11-25T12:45:56.518Z,92.42
2018-11-25T12:47:03.030Z,92.61
2018-11-25T12:48:07.536Z,92.51
2018-11-25T12:49:13.047Z,92.04
2018-11-25T12:50:18.548Z,92.32
2018-11-25T12:51:24.059Z,92.61
2018-11-25T12:52:29.569Z,92.13
2018-11-25T12:53:36.076Z,92.51
2018-11-25T12:54:40.573Z,92.51
2018-11-25T12:55:46.090Z,92.80
2018-11-25T12:56:52.035Z,92.51
2018-11-25T12:57:57.096Z,92.61
2018-11-25T12:59:02.600Z,92.61
2018-11-25T13:00:09.129Z,92.80
2018-11-25T13:01:13.620Z,92.42
2018-11-25T13:02:19.122Z,92.61
2018-11-25T13:03:24.631Z,92.51
2018-11-25T13:04:30.136Z,92.61
2018-11-25T13:05:35.654Z,92.13
2018-11-25T13:06:42.171Z,92.51
2018-11-25T13:07:46.663Z,92.42
2018-11-25T13:08:52.164Z,92.23
2018-11-25T13:09:57.685Z,92.32
2018-11-25T13:11:03.185Z,92.42
2018-11-25T13:12:08.683Z,92.61
2018-11-25T13:13:15.204Z,92.61
2018-11-25T13:14:19.700Z,92.61
2018-11-25T13:15:25.206Z,92.42
2018-11-25T13:16:30.719Z,92.42
2018-11-25T13:17:36.224Z,92.42
2018-11-25T13:18:41.729Z,92.32
2018-11-25T13:19:48.248Z,92.32
2018-11-25T13:20:52.738Z,92.61
2018-11-25T13:21:58.253Z,92.80
2018-11-25T13:23:03.754Z,92.61
2018-11-25T13:24:09.322Z,92.61
2018-11-25T13:25:14.768Z,92.32
2018-11-25T13:26:21.292Z,92.23
2018-11-25T13:27:25.791Z,92.13
2018-11-25T13:28:31.288Z,92.42
2018-11-25T13:29:36.799Z,92.71
2018-11-25T13:30:42.305Z,92.51
2018-11-25T13:31:47.820Z,92.61
2018-11-25T13:32:54.329Z,92.42
2018-11-25T13:33:58.831Z,92.42
2018-11-25T13:35:04.332Z,92.80
2018-11-25T13:36:09.844Z,92.51
2018-11-25T13:37:15.342Z,92.42
2018-11-25T13:38:20.858Z,92.61
2018-11-25T13:39:27.369Z,92.61
2018-11-25T13:40:31.877Z,92.04
2018-11-25T13:41:37.376Z,92.51
2018-11-25T13:42:42.886Z,92.04
2018-11-25T13:43:48.393Z,92.23
2018-11-25T13:44:53.901Z,92.51
2018-11-25T13:46:00.424Z,92.13
2018-11-25T13:47:04.908Z,92.42
2018-11-25T13:48:10.423Z,92.51
2018-11-25T13:49:15.924Z,92.32
2018-11-25T13:50:21.445Z,92.42
2018-11-25T13:51:26.949Z,92.32
2018-11-25T13:52:33.454Z,92.42
2018-11-25T13:53:38.026Z,92.42
2018-11-25T13:54:43.478Z,92.42
2018-11-25T13:55:48.974Z,92.32
2018-11-25T13:56:54.475Z,92.42
2018-11-25T13:57:59.994Z,92.71
2018-11-25T13:59:06.497Z,92.71
2018-11-25T14:00:10.995Z,92.71
2018-11-25T14:01:16.500Z,92.42
2018-11-25T14:02:22.011Z,92.80
2018-11-25T14:03:27.513Z,92.80